Aviation Digital Data Service (ADDS)

Output produced by METARs form (1416 UTC 19 April 2019)
found at http://www.aviationweather.gov/metar/data/
 
METAR text: UKDD 191400Z 07008MPS CAVOK 12/M06 Q1024 R08/090070 NOSIG
Conditions at: UKDD (DNIPROPETROVSK , UA) observed 1400 UTC 19 April 2019
Temperature: 12.0°C (54°F)
Dewpoint: -6.0°C (21°F) [RH = 28%]
Pressure (altimeter): 30.24 inches Hg (1024.0 mb)
Winds: from the ENE (70 degrees) at 18 MPH (16 knots; 8.2 m/s)
Visibility: 6 or more miles (10+ km)
Ceiling: ceiling and visibility are OK
Clouds: unknown
Weather: no significant weather observed at this time

METAR text: UKDD 191330Z 07008MPS 020V100 CAVOK 12/M06 Q1024 R08/090070 TEMPO 07008G13MPS
Conditions at: UKDD (DNIPROPETROVSK , UA) observed 1330 UTC 19 April 2019
Temperature: 12.0°C (54°F)
Dewpoint: -6.0°C (21°F) [RH = 28%]
Pressure (altimeter): 30.24 inches Hg (1024.0 mb)
Winds: from the ENE (70 degrees) at 18 MPH (16 knots; 8.2 m/s)
Visibility: 6 or more miles (10+ km)
Ceiling: ceiling and visibility are OK
Clouds: unknown
Weather: no significant weather observed at this time

METAR text: UKDD 191300Z 07008MPS 040V100 CAVOK 12/M06 Q1024 R08/090070 TEMPO 07008G13MPS
Conditions at: UKDD (DNIPROPETROVSK , UA) observed 1300 UTC 19 April 2019
Temperature: 12.0°C (54°F)
Dewpoint: -6.0°C (21°F) [RH = 28%]
Pressure (altimeter): 30.24 inches Hg (1024.0 mb)
Winds: from the ENE (70 degrees) at 18 MPH (16 knots; 8.2 m/s)
Visibility: 6 or more miles (10+ km)
Ceiling: ceiling and visibility are OK
Clouds: unknown
Weather: no significant weather observed at this time

METAR text: UKDD 191230Z 05007MPS 010V070 CAVOK 12/M06 Q1024 R08/090070 TEMPO 07008G13MPS
Conditions at: UKDD (DNIPROPETROVSK , UA) observed 1230 UTC 19 April 2019
Temperature: 12.0°C (54°F)
Dewpoint: -6.0°C (21°F) [RH = 28%]
Pressure (altimeter): 30.24 inches Hg (1024.0 mb)
Winds: from the NE (50 degrees) at 16 MPH (14 knots; 7.2 m/s)
Visibility: 6 or more miles (10+ km)
Ceiling: ceiling and visibility are OK
Clouds: unknown
Weather: no significant weather observed at this time

METAR text: UKDD 191200Z 05007MPS 030V120 CAVOK 12/M06 Q1024 R08/090070 TEMPO 08007G13MPS
Conditions at: UKDD (DNIPROPETROVSK , UA) observed 1200 UTC 19 April 2019
Temperature: 12.0°C (54°F)
Dewpoint: -6.0°C (21°F) [RH = 28%]
Pressure (altimeter): 30.24 inches Hg (1024.0 mb)
Winds: from the NE (50 degrees) at 16 MPH (14 knots; 7.2 m/s)
Visibility: 6 or more miles (10+ km)
Ceiling: ceiling and visibility are OK
Clouds: unknown
Weather: no significant weather observed at this time

METAR text: UKDD 191130Z 08005MPS 030V100 CAVOK 12/M05 Q1024 R08/090070 TEMPO 08007G13MPS
Conditions at: UKDD (DNIPROPETROVSK , UA) observed 1130 UTC 19 April 2019
Temperature: 12.0°C (54°F)
Dewpoint: -5.0°C (23°F) [RH = 30%]
Pressure (altimeter): 30.24 inches Hg (1024.0 mb)
Winds: from the E (80 degrees) at 12 MPH (10 knots; 5.1 m/s)
Visibility: 6 or more miles (10+ km)
Ceiling: ceiling and visibility are OK
Clouds: unknown
Weather: no significant weather observed at this time

METAR text: UKDD 191100Z 06007MPS CAVOK 13/M04 Q1025 R08/090070 TEMPO 08007G13MPS
Conditions at: UKDD (DNIPROPETROVSK , UA) observed 1100 UTC 19 April 2019
Temperature: 13.0°C (55°F)
Dewpoint: -4.0°C (25°F) [RH = 30%]
Pressure (altimeter): 30.27 inches Hg (1025.0 mb)
Winds: from the ENE (60 degrees) at 16 MPH (14 knots; 7.2 m/s)
Visibility: 6 or more miles (10+ km)
Ceiling: ceiling and visibility are OK
Clouds: unknown
Weather: no significant weather observed at this time

METAR text: UKDD 191030Z 04008MPS 030V090 CAVOK 12/M05 Q1025 R08/090070 TEMPO 08007G13MPS
Conditions at: UKDD (DNIPROPETROVSK , UA) observed 1030 UTC 19 April 2019
Temperature: 12.0°C (54°F)
Dewpoint: -5.0°C (23°F) [RH = 30%]
Pressure (altimeter): 30.27 inches Hg (1025.0 mb)
Winds: from the NE (40 degrees) at 18 MPH (16 knots; 8.2 m/s)
Visibility: 6 or more miles (10+ km)
Ceiling: ceiling and visibility are OK
Clouds: unknown
Weather: no significant weather observed at this time

METAR text: UKDD 191000Z 04005MPS 010V110 CAVOK 11/M04 Q1025 R08/090070 TEMPO 08007G13MPS
Conditions at: UKDD (DNIPROPETROVSK , UA) observed 1000 UTC 19 April 2019
Temperature: 11.0°C (52°F)
Dewpoint: -4.0°C (25°F) [RH = 35%]
Pressure (altimeter): 30.27 inches Hg (1025.0 mb)
Winds: from the NE (40 degrees) at 12 MPH (10 knots; 5.1 m/s)
Visibility: 6 or more miles (10+ km)
Ceiling: ceiling and visibility are OK
Clouds: unknown
Weather: no significant weather observed at this time

METAR text: UKDD 190930Z 07007MPS 030V110 CAVOK 12/M04 Q1025 R08/090070 TEMPO 08007G13MPS
Conditions at: UKDD (DNIPROPETROVSK , UA) observed 0930 UTC 19 April 2019
Temperature: 12.0°C (54°F)
Dewpoint: -4.0°C (25°F) [RH = 32%]
Pressure (altimeter): 30.27 inches Hg (1025.0 mb)
Winds: from the ENE (70 degrees) at 16 MPH (14 knots; 7.2 m/s)
Visibility: 6 or more miles (10+ km)
Ceiling: ceiling and visibility are OK
Clouds: unknown
Weather: no significant weather observed at this time

METAR text: UKDD 190900Z 10006MPS 060V150 CAVOK 12/M03 Q1025 R08/090070 TEMPO 08007G13MPS
Conditions at: UKDD (DNIPROPETROVSK , UA) observed 0900 UTC 19 April 2019
Temperature: 12.0°C (54°F)
Dewpoint: -3.0°C (27°F) [RH = 35%]
Pressure (altimeter): 30.27 inches Hg (1025.0 mb)
Winds: from the E (100 degrees) at 14 MPH (12 knots; 6.2 m/s)
Visibility: 6 or more miles (10+ km)
Ceiling: ceiling and visibility are OK
Clouds: unknown
Weather: no significant weather observed at this time

METAR text: UKDD 190830Z 09006MPS 060V140 CAVOK 11/M03 Q1025 R08/090070 NOSIG
Conditions at: UKDD (DNIPROPETROVSK , UA) observed 0830 UTC 19 April 2019
Temperature: 11.0°C (52°F)
Dewpoint: -3.0°C (27°F) [RH = 37%]
Pressure (altimeter): 30.27 inches Hg (1025.0 mb)
Winds: from the E (90 degrees) at 14 MPH (12 knots; 6.2 m/s)
Visibility: 6 or more miles (10+ km)
Ceiling: ceiling and visibility are OK
Clouds: unknown
Weather: no significant weather observed at this time

METAR text: UKDD 190800Z 08005MPS 050V120 CAVOK 11/M04 Q1025 R08/090070 NOSIG
Conditions at: UKDD (DNIPROPETROVSK , UA) observed 0800 UTC 19 April 2019
Temperature: 11.0°C (52°F)
Dewpoint: -4.0°C (25°F) [RH = 35%]
Pressure (altimeter): 30.27 inches Hg (1025.0 mb)
Winds: from the E (80 degrees) at 12 MPH (10 knots; 5.1 m/s)
Visibility: 6 or more miles (10+ km)
Ceiling: ceiling and visibility are OK
Clouds: unknown
Weather: no significant weather observed at this time

METAR text: UKDD 190730Z 08004MPS 050V130 CAVOK 10/M03 Q1025 R08/090070 NOSIG
Conditions at: UKDD (DNIPROPETROVSK , UA) observed 0730 UTC 19 April 2019
Temperature: 10.0°C (50°F)
Dewpoint: -3.0°C (27°F) [RH = 40%]
Pressure (altimeter): 30.27 inches Hg (1025.0 mb)
Winds: from the E (80 degrees) at 9 MPH (8 knots; 4.1 m/s)
Visibility: 6 or more miles (10+ km)
Ceiling: ceiling and visibility are OK
Clouds: unknown
Weather: no significant weather observed at this time

METAR text: UKDD 190700Z 10004MPS 060V150 CAVOK 09/M03 Q1025 R08/090070 NOSIG
Conditions at: UKDD (DNIPROPETROVSK , UA) observed 0700 UTC 19 April 2019
Temperature: 9.0°C (48°F)
Dewpoint: -3.0°C (27°F) [RH = 43%]
Pressure (altimeter): 30.27 inches Hg (1025.0 mb)
Winds: from the E (100 degrees) at 9 MPH (8 knots; 4.1 m/s)
Visibility: 6 or more miles (10+ km)
Ceiling: ceiling and visibility are OK
Clouds: unknown
Weather: no significant weather observed at this time

METAR text: UKDD 190630Z 12004MPS 070V150 CAVOK 09/M02 Q1025 R08/090070 NOSIG
Conditions at: UKDD (DNIPROPETROVSK , UA) observed 0630 UTC 19 April 2019
Temperature: 9.0°C (48°F)
Dewpoint: -2.0°C (28°F) [RH = 46%]
Pressure (altimeter): 30.27 inches Hg (1025.0 mb)
Winds: from the ESE (120 degrees) at 9 MPH (8 knots; 4.1 m/s)
Visibility: 6 or more miles (10+ km)
Ceiling: ceiling and visibility are OK
Clouds: unknown
Weather: no significant weather observed at this time

METAR text: UKDD 190600Z 06003MPS 020V110 CAVOK 08/M01 Q1024 R08/090070 NOSIG
Conditions at: UKDD (DNIPROPETROVSK , UA) observed 0600 UTC 19 April 2019
Temperature: 8.0°C (46°F)
Dewpoint: -1.0°C (30°F) [RH = 53%]
Pressure (altimeter): 30.24 inches Hg (1024.0 mb)
Winds: from the ENE (60 degrees) at 7 MPH (6 knots; 3.1 m/s)
Visibility: 6 or more miles (10+ km)
Ceiling: ceiling and visibility are OK
Clouds: unknown
Weather: no significant weather observed at this time

METAR text: UKDD 190530Z 06002MPS 020V100 CAVOK 06/M02 Q1024 R08/090070 NOSIG
Conditions at: UKDD (DNIPROPETROVSK , UA) observed 0530 UTC 19 April 2019
Temperature: 6.0°C (43°F)
Dewpoint: -2.0°C (28°F) [RH = 56%]
Pressure (altimeter): 30.24 inches Hg (1024.0 mb)
Winds: from the ENE (60 degrees) at 5 MPH (4 knots; 2.1 m/s)
Visibility: 6 or more miles (10+ km)
Ceiling: ceiling and visibility are OK
Clouds: unknown
Weather: no significant weather observed at this time

METAR text: UKDD 190500Z 04003MPS CAVOK 05/M03 Q1024 R08/090070 NOSIG
Conditions at: UKDD (DNIPROPETROVSK , UA) observed 0500 UTC 19 April 2019
Temperature: 5.0°C (41°F)
Dewpoint: -3.0°C (27°F) [RH = 56%]
Pressure (altimeter): 30.24 inches Hg (1024.0 mb)
Winds: from the NE (40 degrees) at 7 MPH (6 knots; 3.1 m/s)
Visibility: 6 or more miles (10+ km)
Ceiling: ceiling and visibility are OK
Clouds: unknown
Weather: no significant weather observed at this time

METAR text: UKDD 190430Z 06003MPS CAVOK 04/M03 Q1024 R08/090070 NOSIG
Conditions at: UKDD (DNIPROPETROVSK , UA) observed 0430 UTC 19 April 2019
Temperature: 4.0°C (39°F)
Dewpoint: -3.0°C (27°F) [RH = 60%]
Pressure (altimeter): 30.24 inches Hg (1024.0 mb)
Winds: from the ENE (60 degrees) at 7 MPH (6 knots; 3.1 m/s)
Visibility: 6 or more miles (10+ km)
Ceiling: ceiling and visibility are OK
Clouds: unknown
Weather: no significant weather observed at this time

METAR text: UKDD 190400Z 05002MPS CAVOK 03/M04 Q1024 R08/090070 NOSIG
Conditions at: UKDD (DNIPROPETROVSK , UA) observed 0400 UTC 19 April 2019
Temperature: 3.0°C (37°F)
Dewpoint: -4.0°C (25°F) [RH = 60%]
Pressure (altimeter): 30.24 inches Hg (1024.0 mb)
Winds: from the NE (50 degrees) at 5 MPH (4 knots; 2.1 m/s)
Visibility: 6 or more miles (10+ km)
Ceiling: ceiling and visibility are OK
Clouds: unknown
Weather: no significant weather observed at this time

METAR text: UKDD 190330Z 04003MPS CAVOK 02/M04 Q1024 R08/090070 NOSIG
Conditions at: UKDD (DNIPROPETROVSK , UA) observed 0330 UTC 19 April 2019
Temperature: 2.0°C (36°F)
Dewpoint: -4.0°C (25°F) [RH = 64%]
Pressure (altimeter): 30.24 inches Hg (1024.0 mb)
Winds: from the NE (40 degrees) at 7 MPH (6 knots; 3.1 m/s)
Visibility: 6 or more miles (10+ km)
Ceiling: ceiling and visibility are OK
Clouds: unknown
Weather: no significant weather observed at this time

METAR text: UKDD 190300Z 04003MPS CAVOK 02/M04 Q1024 R08/090070 NOSIG
Conditions at: UKDD (DNIPROPETROVSK , UA) observed 0300 UTC 19 April 2019
Temperature: 2.0°C (36°F)
Dewpoint: -4.0°C (25°F) [RH = 64%]
Pressure (altimeter): 30.24 inches Hg (1024.0 mb)
Winds: from the NE (40 degrees) at 7 MPH (6 knots; 3.1 m/s)
Visibility: 6 or more miles (10+ km)
Ceiling: ceiling and visibility are OK
Clouds: unknown
Weather: no significant weather observed at this time

METAR text: UKDD 190230Z 05003MPS CAVOK 02/M05 Q1023 R08/090070 NOSIG
Conditions at: UKDD (DNIPROPETROVSK , UA) observed 0230 UTC 19 April 2019
Temperature: 2.0°C (36°F)
Dewpoint: -5.0°C (23°F) [RH = 60%]
Pressure (altimeter): 30.21 inches Hg (1023.0 mb)
Winds: from the NE (50 degrees) at 7 MPH (6 knots; 3.1 m/s)
Visibility: 6 or more miles (10+ km)
Ceiling: ceiling and visibility are OK
Clouds: unknown
Weather: no significant weather observed at this time

METAR text: UKDD 190200Z 03003MPS CAVOK 02/M05 Q1023 R08/090070 NOSIG
Conditions at: UKDD (DNIPROPETROVSK , UA) observed 0200 UTC 19 April 2019
Temperature: 2.0°C (36°F)
Dewpoint: -5.0°C (23°F) [RH = 60%]
Pressure (altimeter): 30.21 inches Hg (1023.0 mb)
Winds: from the NNE (30 degrees) at 7 MPH (6 knots; 3.1 m/s)
Visibility: 6 or more miles (10+ km)
Ceiling: ceiling and visibility are OK
Clouds: unknown
Weather: no significant weather observed at this time

METAR text: UKDD 190130Z 04003MPS CAVOK 02/M04 Q1023 R08/090070 NOSIG
Conditions at: UKDD (DNIPROPETROVSK , UA) observed 0130 UTC 19 April 2019
Temperature: 2.0°C (36°F)
Dewpoint: -4.0°C (25°F) [RH = 64%]
Pressure (altimeter): 30.21 inches Hg (1023.0 mb)
Winds: from the NE (40 degrees) at 7 MPH (6 knots; 3.1 m/s)
Visibility: 6 or more miles (10+ km)
Ceiling: ceiling and visibility are OK
Clouds: unknown
Weather: no significant weather observed at this time

METAR text: UKDD 190100Z 04002MPS CAVOK 02/M04 Q1023 R08/090070 NOSIG
Conditions at: UKDD (DNIPROPETROVSK , UA) observed 0100 UTC 19 April 2019
Temperature: 2.0°C (36°F)
Dewpoint: -4.0°C (25°F) [RH = 64%]
Pressure (altimeter): 30.21 inches Hg (1023.0 mb)
Winds: from the NE (40 degrees) at 5 MPH (4 knots; 2.1 m/s)
Visibility: 6 or more miles (10+ km)
Ceiling: ceiling and visibility are OK
Clouds: unknown
Weather: no significant weather observed at this time

METAR text: UKDD 190030Z 06003MPS CAVOK 03/M04 Q1023 R08/090070 NOSIG
Conditions at: UKDD (DNIPROPETROVSK , UA) observed 0030 UTC 19 April 2019
Temperature: 3.0°C (37°F)
Dewpoint: -4.0°C (25°F) [RH = 60%]
Pressure (altimeter): 30.21 inches Hg (1023.0 mb)
Winds: from the ENE (60 degrees) at 7 MPH (6 knots; 3.1 m/s)
Visibility: 6 or more miles (10+ km)
Ceiling: ceiling and visibility are OK
Clouds: unknown
Weather: no significant weather observed at this time

METAR text: UKDD 190000Z 05002MPS CAVOK 03/M04 Q1023 R08/090070 NOSIG
Conditions at: UKDD (DNIPROPETROVSK , UA) observed 0000 UTC 19 April 2019
Temperature: 3.0°C (37°F)
Dewpoint: -4.0°C (25°F) [RH = 60%]
Pressure (altimeter): 30.21 inches Hg (1023.0 mb)
Winds: from the NE (50 degrees) at 5 MPH (4 knots; 2.1 m/s)
Visibility: 6 or more miles (10+ km)
Ceiling: ceiling and visibility are OK
Clouds: unknown
Weather: no significant weather observed at this time

METAR text: UKDD 182330Z 05002MPS CAVOK 04/M04 Q1023 R08/090070 NOSIG
Conditions at: UKDD (DNIPROPETROVSK , UA) observed 2330 UTC 18 April 2019
Temperature: 4.0°C (39°F)
Dewpoint: -4.0°C (25°F) [RH = 56%]
Pressure (altimeter): 30.21 inches Hg (1023.0 mb)
Winds: from the NE (50 degrees) at 5 MPH (4 knots; 2.1 m/s)
Visibility: 6 or more miles (10+ km)
Ceiling: ceiling and visibility are OK
Clouds: unknown
Weather: no significant weather observed at this time

METAR text: UKDD 182300Z 08003MPS CAVOK 03/M04 Q1024 R08/090070 NOSIG
Conditions at: UKDD (DNIPROPETROVSK , UA) observed 2300 UTC 18 April 2019
Temperature: 3.0°C (37°F)
Dewpoint: -4.0°C (25°F) [RH = 60%]
Pressure (altimeter): 30.24 inches Hg (1024.0 mb)
Winds: from the E (80 degrees) at 7 MPH (6 knots; 3.1 m/s)
Visibility: 6 or more miles (10+ km)
Ceiling: ceiling and visibility are OK
Clouds: unknown
Weather: no significant weather observed at this time

METAR text: UKDD 182230Z 08004MPS CAVOK 03/M03 Q1024 R08/090070 NOSIG
Conditions at: UKDD (DNIPROPETROVSK , UA) observed 2230 UTC 18 April 2019
Temperature: 3.0°C (37°F)
Dewpoint: -3.0°C (27°F) [RH = 65%]
Pressure (altimeter): 30.24 inches Hg (1024.0 mb)
Winds: from the E (80 degrees) at 9 MPH (8 knots; 4.1 m/s)
Visibility: 6 or more miles (10+ km)
Ceiling: ceiling and visibility are OK
Clouds: unknown
Weather: no significant weather observed at this time

METAR text: UKDD 182200Z 08004MPS CAVOK 03/M03 Q1024 R08/090070 NOSIG
Conditions at: UKDD (DNIPROPETROVSK , UA) observed 2200 UTC 18 April 2019
Temperature: 3.0°C (37°F)
Dewpoint: -3.0°C (27°F) [RH = 65%]
Pressure (altimeter): 30.24 inches Hg (1024.0 mb)
Winds: from the E (80 degrees) at 9 MPH (8 knots; 4.1 m/s)
Visibility: 6 or more miles (10+ km)
Ceiling: ceiling and visibility are OK
Clouds: unknown
Weather: no significant weather observed at this time

METAR text: UKDD 182130Z 08004MPS CAVOK 03/M04 Q1024 R08/090070 NOSIG
Conditions at: UKDD (DNIPROPETROVSK , UA) observed 2130 UTC 18 April 2019
Temperature: 3.0°C (37°F)
Dewpoint: -4.0°C (25°F) [RH = 60%]
Pressure (altimeter): 30.24 inches Hg (1024.0 mb)
Winds: from the E (80 degrees) at 9 MPH (8 knots; 4.1 m/s)
Visibility: 6 or more miles (10+ km)
Ceiling: ceiling and visibility are OK
Clouds: unknown
Weather: no significant weather observed at this time

METAR text: UKDD 182100Z 07004MPS CAVOK 03/M04 Q1024 R08/090070 NOSIG
Conditions at: UKDD (DNIPROPETROVSK , UA) observed 2100 UTC 18 April 2019
Temperature: 3.0°C (37°F)
Dewpoint: -4.0°C (25°F) [RH = 60%]
Pressure (altimeter): 30.24 inches Hg (1024.0 mb)
Winds: from the ENE (70 degrees) at 9 MPH (8 knots; 4.1 m/s)
Visibility: 6 or more miles (10+ km)
Ceiling: ceiling and visibility are OK
Clouds: unknown
Weather: no significant weather observed at this time

METAR text: UKDD 182030Z 07004MPS CAVOK 03/M04 Q1024 R08/090070 NOSIG
Conditions at: UKDD (DNIPROPETROVSK , UA) observed 2030 UTC 18 April 2019
Temperature: 3.0°C (37°F)
Dewpoint: -4.0°C (25°F) [RH = 60%]
Pressure (altimeter): 30.24 inches Hg (1024.0 mb)
Winds: from the ENE (70 degrees) at 9 MPH (8 knots; 4.1 m/s)
Visibility: 6 or more miles (10+ km)
Ceiling: ceiling and visibility are OK
Clouds: unknown
Weather: no significant weather observed at this time

METAR text: UKDD 182000Z 07004MPS CAVOK 05/M04 Q1025 R08/090070 NOSIG
Conditions at: UKDD (DNIPROPETROVSK , UA) observed 2000 UTC 18 April 2019
Temperature: 5.0°C (41°F)
Dewpoint: -4.0°C (25°F) [RH = 52%]
Pressure (altimeter): 30.27 inches Hg (1025.0 mb)
Winds: from the ENE (70 degrees) at 9 MPH (8 knots; 4.1 m/s)
Visibility: 6 or more miles (10+ km)
Ceiling: ceiling and visibility are OK
Clouds: unknown
Weather: no significant weather observed at this time

METAR text: UKDD 181930Z 06004MPS CAVOK 06/M04 Q1025 R08/090070 NOSIG
Conditions at: UKDD (DNIPROPETROVSK , UA) observed 1930 UTC 18 April 2019
Temperature: 6.0°C (43°F)
Dewpoint: -4.0°C (25°F) [RH = 49%]
Pressure (altimeter): 30.27 inches Hg (1025.0 mb)
Winds: from the ENE (60 degrees) at 9 MPH (8 knots; 4.1 m/s)
Visibility: 6 or more miles (10+ km)
Ceiling: ceiling and visibility are OK
Clouds: unknown
Weather: no significant weather observed at this time

METAR text: UKDD 181900Z 05003MPS CAVOK 06/M03 Q1025 R08/090070 NOSIG
Conditions at: UKDD (DNIPROPETROVSK , UA) observed 1900 UTC 18 April 2019
Temperature: 6.0°C (43°F)
Dewpoint: -3.0°C (27°F) [RH = 52%]
Pressure (altimeter): 30.27 inches Hg (1025.0 mb)
Winds: from the NE (50 degrees) at 7 MPH (6 knots; 3.1 m/s)
Visibility: 6 or more miles (10+ km)
Ceiling: ceiling and visibility are OK
Clouds: unknown
Weather: no significant weather observed at this time

METAR text: UKDD 181830Z 04003MPS CAVOK 06/M03 Q1025 R08/090070 NOSIG
Conditions at: UKDD (DNIPROPETROVSK , UA) observed 1830 UTC 18 April 2019
Temperature: 6.0°C (43°F)
Dewpoint: -3.0°C (27°F) [RH = 52%]
Pressure (altimeter): 30.27 inches Hg (1025.0 mb)
Winds: from the NE (40 degrees) at 7 MPH (6 knots; 3.1 m/s)
Visibility: 6 or more miles (10+ km)
Ceiling: ceiling and visibility are OK
Clouds: unknown
Weather: no significant weather observed at this time

METAR text: UKDD 181800Z 03003MPS 350V070 CAVOK 06/M03 Q1025 R08/090070 NOSIG
Conditions at: UKDD (DNIPROPETROVSK , UA) observed 1800 UTC 18 April 2019
Temperature: 6.0°C (43°F)
Dewpoint: -3.0°C (27°F) [RH = 52%]
Pressure (altimeter): 30.27 inches Hg (1025.0 mb)
Winds: from the NNE (30 degrees) at 7 MPH (6 knots; 3.1 m/s)
Visibility: 6 or more miles (10+ km)
Ceiling: ceiling and visibility are OK
Clouds: unknown
Weather: no significant weather observed at this time

METAR text: UKDD 181730Z 04003MPS CAVOK 06/M03 Q1025 R08/090070 NOSIG
Conditions at: UKDD (DNIPROPETROVSK , UA) observed 1730 UTC 18 April 2019
Temperature: 6.0°C (43°F)
Dewpoint: -3.0°C (27°F) [RH = 52%]
Pressure (altimeter): 30.27 inches Hg (1025.0 mb)
Winds: from the NE (40 degrees) at 7 MPH (6 knots; 3.1 m/s)
Visibility: 6 or more miles (10+ km)
Ceiling: ceiling and visibility are OK
Clouds: unknown
Weather: no significant weather observed at this time

METAR text: UKDD 181700Z 05003MPS CAVOK 07/M03 Q1025 R08/090070 NOSIG
Conditions at: UKDD (DNIPROPETROVSK , UA) observed 1700 UTC 18 April 2019
Temperature: 7.0°C (45°F)
Dewpoint: -3.0°C (27°F) [RH = 49%]
Pressure (altimeter): 30.27 inches Hg (1025.0 mb)
Winds: from the NE (50 degrees) at 7 MPH (6 knots; 3.1 m/s)
Visibility: 6 or more miles (10+ km)
Ceiling: ceiling and visibility are OK
Clouds: unknown
Weather: no significant weather observed at this time

METAR text: UKDD 181630Z 06003MPS CAVOK 07/M03 Q1025 R08/090070 NOSIG
Conditions at: UKDD (DNIPROPETROVSK , UA) observed 1630 UTC 18 April 2019
Temperature: 7.0°C (45°F)
Dewpoint: -3.0°C (27°F) [RH = 49%]
Pressure (altimeter): 30.27 inches Hg (1025.0 mb)
Winds: from the ENE (60 degrees) at 7 MPH (6 knots; 3.1 m/s)
Visibility: 6 or more miles (10+ km)
Ceiling: ceiling and visibility are OK
Clouds: unknown
Weather: no significant weather observed at this time

METAR text: UKDD 181600Z 07003MPS CAVOK 09/M02 Q1024 R08/090070 NOSIG
Conditions at: UKDD (DNIPROPETROVSK , UA) observed 1600 UTC 18 April 2019
Temperature: 9.0°C (48°F)
Dewpoint: -2.0°C (28°F) [RH = 46%]
Pressure (altimeter): 30.24 inches Hg (1024.0 mb)
Winds: from the ENE (70 degrees) at 7 MPH (6 knots; 3.1 m/s)
Visibility: 6 or more miles (10+ km)
Ceiling: ceiling and visibility are OK
Clouds: unknown
Weather: no significant weather observed at this time

METAR text: UKDD 181530Z 06004MPS CAVOK 09/M03 Q1024 R08/090070 NOSIG
Conditions at: UKDD (DNIPROPETROVSK , UA) observed 1530 UTC 18 April 2019
Temperature: 9.0°C (48°F)
Dewpoint: -3.0°C (27°F) [RH = 43%]
Pressure (altimeter): 30.24 inches Hg (1024.0 mb)
Winds: from the ENE (60 degrees) at 9 MPH (8 knots; 4.1 m/s)
Visibility: 6 or more miles (10+ km)
Ceiling: ceiling and visibility are OK
Clouds: unknown
Weather: no significant weather observed at this time

METAR text: UKDD 181500Z 05004MPS 020V080 CAVOK 10/M05 Q1025 R08/090070 NOSIG
Conditions at: UKDD (DNIPROPETROVSK , UA) observed 1500 UTC 18 April 2019
Temperature: 10.0°C (50°F)
Dewpoint: -5.0°C (23°F) [RH = 34%]
Pressure (altimeter): 30.27 inches Hg (1025.0 mb)
Winds: from the NE (50 degrees) at 9 MPH (8 knots; 4.1 m/s)
Visibility: 6 or more miles (10+ km)
Ceiling: ceiling and visibility are OK
Clouds: unknown
Weather: no significant weather observed at this time

METAR text: UKDD 181430Z 06004MPS 030V090 CAVOK 10/M03 Q1025 R08/090070 NOSIG
Conditions at: UKDD (DNIPROPETROVSK , UA) observed 1430 UTC 18 April 2019
Temperature: 10.0°C (50°F)
Dewpoint: -3.0°C (27°F) [RH = 40%]
Pressure (altimeter): 30.27 inches Hg (1025.0 mb)
Winds: from the ENE (60 degrees) at 9 MPH (8 knots; 4.1 m/s)
Visibility: 6 or more miles (10+ km)
Ceiling: ceiling and visibility are OK
Clouds: unknown
Weather: no significant weather observed at this time

METAR text: UKDD 181400Z 05005MPS CAVOK 11/M04 Q1025 R08/090070 NOSIG
Conditions at: UKDD (DNIPROPETROVSK , UA) observed 1400 UTC 18 April 2019
Temperature: 11.0°C (52°F)
Dewpoint: -4.0°C (25°F) [RH = 35%]
Pressure (altimeter): 30.27 inches Hg (1025.0 mb)
Winds: from the NE (50 degrees) at 12 MPH (10 knots; 5.1 m/s)
Visibility: 6 or more miles (10+ km)
Ceiling: ceiling and visibility are OK
Clouds: unknown
Weather: no significant weather observed at this time

METAR text: UKDD 181330Z 07006MPS CAVOK 12/M05 Q1025 R08/090070 NOSIG
Conditions at: UKDD (DNIPROPETROVSK , UA) observed 1330 UTC 18 April 2019
Temperature: 12.0°C (54°F)
Dewpoint: -5.0°C (23°F) [RH = 30%]
Pressure (altimeter): 30.27 inches Hg (1025.0 mb)
Winds: from the ENE (70 degrees) at 14 MPH (12 knots; 6.2 m/s)
Visibility: 6 or more miles (10+ km)
Ceiling: ceiling and visibility are OK
Clouds: unknown
Weather: no significant weather observed at this time

METAR text: UKDD 181300Z 05006MPS 360V100 CAVOK 12/M03 Q1025 R08/090070 NOSIG
Conditions at: UKDD (DNIPROPETROVSK , UA) observed 1300 UTC 18 April 2019
Temperature: 12.0°C (54°F)
Dewpoint: -3.0°C (27°F) [RH = 35%]
Pressure (altimeter): 30.27 inches Hg (1025.0 mb)
Winds: from the NE (50 degrees) at 14 MPH (12 knots; 6.2 m/s)
Visibility: 6 or more miles (10+ km)
Ceiling: ceiling and visibility are OK
Clouds: unknown
Weather: no significant weather observed at this time

METAR text: UKDD 181230Z 06005MPS 030V100 CAVOK 12/M03 Q1025 R08/090070 NOSIG
Conditions at: UKDD (DNIPROPETROVSK , UA) observed 1230 UTC 18 April 2019
Temperature: 12.0°C (54°F)
Dewpoint: -3.0°C (27°F) [RH = 35%]
Pressure (altimeter): 30.27 inches Hg (1025.0 mb)
Winds: from the ENE (60 degrees) at 12 MPH (10 knots; 5.1 m/s)
Visibility: 6 or more miles (10+ km)
Ceiling: ceiling and visibility are OK
Clouds: unknown
Weather: no significant weather observed at this time

METAR text: UKDD 181200Z 05006MPS 360V090 CAVOK 12/M04 Q1026 R08/090070 NOSIG
Conditions at: UKDD (DNIPROPETROVSK , UA) observed 1200 UTC 18 April 2019
Temperature: 12.0°C (54°F)
Dewpoint: -4.0°C (25°F) [RH = 32%]
Pressure (altimeter): 30.30 inches Hg (1026.0 mb)
Winds: from the NE (50 degrees) at 14 MPH (12 knots; 6.2 m/s)
Visibility: 6 or more miles (10+ km)
Ceiling: ceiling and visibility are OK
Clouds: unknown
Weather: no significant weather observed at this time

METAR text: UKDD 181130Z 05005MPS CAVOK 11/M04 Q1026 R08/090070 NOSIG
Conditions at: UKDD (DNIPROPETROVSK , UA) observed 1130 UTC 18 April 2019
Temperature: 11.0°C (52°F)
Dewpoint: -4.0°C (25°F) [RH = 35%]
Pressure (altimeter): 30.30 inches Hg (1026.0 mb)
Winds: from the NE (50 degrees) at 12 MPH (10 knots; 5.1 m/s)
Visibility: 6 or more miles (10+ km)
Ceiling: ceiling and visibility are OK
Clouds: unknown
Weather: no significant weather observed at this time

METAR text: UKDD 181100Z 06006MPS 020V090 CAVOK 11/M03 Q1026 R08/090070 NOSIG
Conditions at: UKDD (DNIPROPETROVSK , UA) observed 1100 UTC 18 April 2019
Temperature: 11.0°C (52°F)
Dewpoint: -3.0°C (27°F) [RH = 37%]
Pressure (altimeter): 30.30 inches Hg (1026.0 mb)
Winds: from the ENE (60 degrees) at 14 MPH (12 knots; 6.2 m/s)
Visibility: 6 or more miles (10+ km)
Ceiling: ceiling and visibility are OK
Clouds: unknown
Weather: no significant weather observed at this time

METAR text: UKDD 181030Z 05006MPS 020V080 CAVOK 11/M03 Q1026 R08/090070 NOSIG
Conditions at: UKDD (DNIPROPETROVSK , UA) observed 1030 UTC 18 April 2019
Temperature: 11.0°C (52°F)
Dewpoint: -3.0°C (27°F) [RH = 37%]
Pressure (altimeter): 30.30 inches Hg (1026.0 mb)
Winds: from the NE (50 degrees) at 14 MPH (12 knots; 6.2 m/s)
Visibility: 6 or more miles (10+ km)
Ceiling: ceiling and visibility are OK
Clouds: unknown
Weather: no significant weather observed at this time

METAR text: UKDD 181000Z 04008MPS 010V070 CAVOK 10/M04 Q1027 R08/090070 NOSIG
Conditions at: UKDD (DNIPROPETROVSK , UA) observed 1000 UTC 18 April 2019
Temperature: 10.0°C (50°F)
Dewpoint: -4.0°C (25°F) [RH = 37%]
Pressure (altimeter): 30.32 inches Hg (1027.0 mb)
Winds: from the NE (40 degrees) at 18 MPH (16 knots; 8.2 m/s)
Visibility: 6 or more miles (10+ km)
Ceiling: ceiling and visibility are OK
Clouds: unknown
Weather: no significant weather observed at this time

METAR text: UKDD 180930Z 05006MPS CAVOK 10/M03 Q1027 R08/090070 NOSIG
Conditions at: UKDD (DNIPROPETROVSK , UA) observed 0930 UTC 18 April 2019
Temperature: 10.0°C (50°F)
Dewpoint: -3.0°C (27°F) [RH = 40%]
Pressure (altimeter): 30.32 inches Hg (1027.0 mb)
Winds: from the NE (50 degrees) at 14 MPH (12 knots; 6.2 m/s)
Visibility: 6 or more miles (10+ km)
Ceiling: ceiling and visibility are OK
Clouds: unknown
Weather: no significant weather observed at this time

METAR text: UKDD 180900Z 08007MPS CAVOK 10/M03 Q1027 R08/090070 NOSIG
Conditions at: UKDD (DNIPROPETROVSK , UA) observed 0900 UTC 18 April 2019
Temperature: 10.0°C (50°F)
Dewpoint: -3.0°C (27°F) [RH = 40%]
Pressure (altimeter): 30.32 inches Hg (1027.0 mb)
Winds: from the E (80 degrees) at 16 MPH (14 knots; 7.2 m/s)
Visibility: 6 or more miles (10+ km)
Ceiling: ceiling and visibility are OK
Clouds: unknown
Weather: no significant weather observed at this time

METAR text: UKDD 180830Z 06006MPS CAVOK 09/M04 Q1027 R08/090070 NOSIG
Conditions at: UKDD (DNIPROPETROVSK , UA) observed 0830 UTC 18 April 2019
Temperature: 9.0°C (48°F)
Dewpoint: -4.0°C (25°F) [RH = 40%]
Pressure (altimeter): 30.32 inches Hg (1027.0 mb)
Winds: from the ENE (60 degrees) at 14 MPH (12 knots; 6.2 m/s)
Visibility: 6 or more miles (10+ km)
Ceiling: ceiling and visibility are OK
Clouds: unknown
Weather: no significant weather observed at this time

METAR text: UKDD 180800Z 07007MPS CAVOK 09/M03 Q1027 R08/090070 NOSIG
Conditions at: UKDD (DNIPROPETROVSK , UA) observed 0800 UTC 18 April 2019
Temperature: 9.0°C (48°F)
Dewpoint: -3.0°C (27°F) [RH = 43%]
Pressure (altimeter): 30.32 inches Hg (1027.0 mb)
Winds: from the ENE (70 degrees) at 16 MPH (14 knots; 7.2 m/s)
Visibility: 6 or more miles (10+ km)
Ceiling: ceiling and visibility are OK
Clouds: unknown
Weather: no significant weather observed at this time

METAR text: UKDD 180730Z 07006MPS 040V110 CAVOK 08/M03 Q1028 R08/090070 NOSIG
Conditions at: UKDD (DNIPROPETROVSK , UA) observed 0730 UTC 18 April 2019
Temperature: 8.0°C (46°F)
Dewpoint: -3.0°C (27°F) [RH = 46%]
Pressure (altimeter): 30.35 inches Hg (1028.0 mb)
Winds: from the ENE (70 degrees) at 14 MPH (12 knots; 6.2 m/s)
Visibility: 6 or more miles (10+ km)
Ceiling: ceiling and visibility are OK
Clouds: unknown
Weather: no significant weather observed at this time

METAR text: UKDD 180700Z 08007MPS 050V110 CAVOK 08/M02 Q1028 R08/090070 NOSIG
Conditions at: UKDD (DNIPROPETROVSK , UA) observed 0700 UTC 18 April 2019
Temperature: 8.0°C (46°F)
Dewpoint: -2.0°C (28°F) [RH = 49%]
Pressure (altimeter): 30.35 inches Hg (1028.0 mb)
Winds: from the E (80 degrees) at 16 MPH (14 knots; 7.2 m/s)
Visibility: 6 or more miles (10+ km)
Ceiling: ceiling and visibility are OK
Clouds: unknown
Weather: no significant weather observed at this time

METAR text: UKDD 180630Z 07006MPS CAVOK 07/M02 Q1028 R08/090070 NOSIG
Conditions at: UKDD (DNIPROPETROVSK , UA) observed 0630 UTC 18 April 2019
Temperature: 7.0°C (45°F)
Dewpoint: -2.0°C (28°F) [RH = 53%]
Pressure (altimeter): 30.35 inches Hg (1028.0 mb)
Winds: from the ENE (70 degrees) at 14 MPH (12 knots; 6.2 m/s)
Visibility: 6 or more miles (10+ km)
Ceiling: ceiling and visibility are OK
Clouds: unknown
Weather: no significant weather observed at this time

METAR text: UKDD 180600Z 07006MPS CAVOK 06/M03 Q1027 R08/090070 NOSIG
Conditions at: UKDD (DNIPROPETROVSK , UA) observed 0600 UTC 18 April 2019
Temperature: 6.0°C (43°F)
Dewpoint: -3.0°C (27°F) [RH = 52%]
Pressure (altimeter): 30.32 inches Hg (1027.0 mb)
Winds: from the ENE (70 degrees) at 14 MPH (12 knots; 6.2 m/s)
Visibility: 6 or more miles (10+ km)
Ceiling: ceiling and visibility are OK
Clouds: unknown
Weather: no significant weather observed at this time

METAR text: UKDD 180530Z 06006MPS 030V090 CAVOK 04/M02 Q1027 R08/090070 NOSIG
Conditions at: UKDD (DNIPROPETROVSK , UA) observed 0530 UTC 18 April 2019
Temperature: 4.0°C (39°F)
Dewpoint: -2.0°C (28°F) [RH = 65%]
Pressure (altimeter): 30.32 inches Hg (1027.0 mb)
Winds: from the ENE (60 degrees) at 14 MPH (12 knots; 6.2 m/s)
Visibility: 6 or more miles (10+ km)
Ceiling: ceiling and visibility are OK
Clouds: unknown
Weather: no significant weather observed at this time

METAR text: UKDD 180500Z 06006MPS 020V080 CAVOK 03/M03 Q1027 R08/090070 NOSIG
Conditions at: UKDD (DNIPROPETROVSK , UA) observed 0500 UTC 18 April 2019
Temperature: 3.0°C (37°F)
Dewpoint: -3.0°C (27°F) [RH = 65%]
Pressure (altimeter): 30.32 inches Hg (1027.0 mb)
Winds: from the ENE (60 degrees) at 14 MPH (12 knots; 6.2 m/s)
Visibility: 6 or more miles (10+ km)
Ceiling: ceiling and visibility are OK
Clouds: unknown
Weather: no significant weather observed at this time

METAR text: UKDD 180430Z 06006MPS CAVOK 02/M03 Q1027 R08/090070 NOSIG
Conditions at: UKDD (DNIPROPETROVSK , UA) observed 0430 UTC 18 April 2019
Temperature: 2.0°C (36°F)
Dewpoint: -3.0°C (27°F) [RH = 69%]
Pressure (altimeter): 30.32 inches Hg (1027.0 mb)
Winds: from the ENE (60 degrees) at 14 MPH (12 knots; 6.2 m/s)
Visibility: 6 or more miles (10+ km)
Ceiling: ceiling and visibility are OK
Clouds: unknown
Weather: no significant weather observed at this time

METAR text: UKDD 180400Z 06005MPS CAVOK 02/M03 Q1027 R08/090070 NOSIG
Conditions at: UKDD (DNIPROPETROVSK , UA) observed 0400 UTC 18 April 2019
Temperature: 2.0°C (36°F)
Dewpoint: -3.0°C (27°F) [RH = 69%]
Pressure (altimeter): 30.32 inches Hg (1027.0 mb)
Winds: from the ENE (60 degrees) at 12 MPH (10 knots; 5.1 m/s)
Visibility: 6 or more miles (10+ km)
Ceiling: ceiling and visibility are OK
Clouds: unknown
Weather: no significant weather observed at this time

METAR text: UKDD 180330Z 06005MPS CAVOK 01/M02 Q1026 R08/090070 NOSIG
Conditions at: UKDD (DNIPROPETROVSK , UA) observed 0330 UTC 18 April 2019
Temperature: 1.0°C (34°F)
Dewpoint: -2.0°C (28°F) [RH = 80%]
Pressure (altimeter): 30.30 inches Hg (1026.0 mb)
Winds: from the ENE (60 degrees) at 12 MPH (10 knots; 5.1 m/s)
Visibility: 6 or more miles (10+ km)
Ceiling: ceiling and visibility are OK
Clouds: unknown
Weather: no significant weather observed at this time

METAR text: UKDD 180300Z 06005MPS CAVOK 01/M02 Q1026 R08/210370 NOSIG
Conditions at: UKDD (DNIPROPETROVSK , UA) observed 0300 UTC 18 April 2019
Temperature: 1.0°C (34°F)
Dewpoint: -2.0°C (28°F) [RH = 80%]
Pressure (altimeter): 30.30 inches Hg (1026.0 mb)
Winds: from the ENE (60 degrees) at 12 MPH (10 knots; 5.1 m/s)
Visibility: 6 or more miles (10+ km)
Ceiling: ceiling and visibility are OK
Clouds: unknown
Weather: no significant weather observed at this time

METAR text: UKDD 180230Z 06005MPS CAVOK 01/M02 Q1026 R08/210370 NOSIG
Conditions at: UKDD (DNIPROPETROVSK , UA) observed 0230 UTC 18 April 2019
Temperature: 1.0°C (34°F)
Dewpoint: -2.0°C (28°F) [RH = 80%]
Pressure (altimeter): 30.30 inches Hg (1026.0 mb)
Winds: from the ENE (60 degrees) at 12 MPH (10 knots; 5.1 m/s)
Visibility: 6 or more miles (10+ km)
Ceiling: ceiling and visibility are OK
Clouds: unknown
Weather: no significant weather observed at this time

Forecast for: UKDD (DNIPROPETROVSK , UA)
Text: TAF UKDD 191107Z 1912/2012 05006MPS 9999 BKN020 TX13/1912Z TN02/2002Z
Forecast period: 1200 UTC 19 April 2019 to 1200 UTC 20 April 2019
Forecast type: FROM: standard forecast or significant change
Winds: from the NE (50 degrees) at 14 MPH (12 knots; 6.2 m/s)
Visibility: 6 or more miles 10+ km)
Ceiling: 2000 feet AGL
Clouds: broken clouds at 2000 feet AGL
Weather: no significant weather forecast for this period
Text: TEMPO 1912/1918 07008G13MPS SCT025CB
Forecast period: 1200 to 1800 UTC 19 April 2019
Forecast type: TEMPORARY: The following changes expected for less than half the time period
Winds: from the ENE (70 degrees) at 18 MPH (16 knots; 8.2 m/s)
gusting to 29 MPH (25 knots; 12.9 m/s)
Visibility: missing
Ceiling: at least 12,000 feet AGL
Clouds: scattered clouds at 2500 feet AGL
Weather: no significant weather forecast for this period
Text: TEMPO 2006/2012 06007G12MPS
Forecast period: 0600 to 1200 UTC 20 April 2019
Forecast type: TEMPORARY: The following changes expected for less than half the time period
Winds: from the ENE (60 degrees) at 16 MPH (14 knots; 7.2 m/s)
gusting to 26 MPH (23 knots; 11.8 m/s)
Visibility: missing
Ceiling: unknown
Clouds: missing
Weather: no significant weather forecast for this period